Time;durP1;ratioP1;P1;durP2;ratioP2;P2;SDS_P1;SDS_P2;PMS_P1;PMS_P2;Temp;Humidity;BMP_temperature;BMP_pressure;BME280_temperature;BME280_humidity;BME280_pressure;Samples;Min_cycle;Max_cycle;Signal;HPM_P1;HPM_P2
2021/05/03 00:00:13;;;;;;;10.40;9.60;;;;;;;4.17;99.57;95983.44;5044083;28;20280;-68
2021/05/03 00:02:40;;;;;;;8.07;7.47;;;;;;;4.20;99.67;95992.78;5026438;28;20243;-68
2021/05/03 00:05:17;;;;;;;7.53;6.90;;;;;;;4.25;99.43;95980.97;5044625;28;20298;-69
2021/05/03 00:07:44;;;;;;;10.23;9.43;;;;;;;4.18;100.00;95990.28;5046683;28;20245;-68
2021/05/03 00:10:12;;;;;;;10.40;9.63;;;;;;;4.16;100.00;95986.19;5037003;28;20224;-69
2021/05/03 00:12:39;;;;;;;7.93;7.33;;;;;;;4.22;100.00;95994.31;5044438;28;20248;-68
2021/05/03 00:15:07;;;;;;;8.83;8.23;;;;;;;4.20;99.95;95988.38;5045183;28;20311;-68
2021/05/03 00:17:34;;;;;;;10.27;9.57;;;;;;;4.13;100.00;95997.75;5044818;28;20306;-68
2021/05/03 00:20:01;;;;;;;10.77;9.60;;;;;;;4.15;99.90;95993.19;5039237;28;20257;-68
2021/05/03 00:22:28;;;;;;;11.53;10.63;;;;;;;4.15;100.00;96001.03;5044324;28;20306;-68
2021/05/03 00:24:55;;;;;;;11.13;10.43;;;;;;;4.20;100.00;95998.81;5028302;28;20654;-67
2021/05/03 00:27:23;;;;;;;10.40;9.70;;;;;;;4.18;99.80;96005.97;5025725;28;20220;-68
2021/05/03 00:29:50;;;;;;;10.50;9.60;;;;;;;4.19;100.00;95997.16;5046025;28;20685;-68
2021/05/03 00:32:16;;;;;;;10.43;9.47;;;;;;;4.12;100.00;95995.25;5029982;28;20562;-68
2021/05/03 00:34:43;;;;;;;11.53;10.63;;;;;;;4.05;100.00;95997.59;5041242;28;20572;-68
2021/05/03 00:37:10;;;;;;;11.53;10.37;;;;;;;4.04;100.00;95993.31;5029057;28;20587;-67
2021/05/03 00:39:38;;;;;;;10.00;9.20;;;;;;;4.10;100.00;95990.16;5046058;28;20685;-68
2021/05/03 00:42:05;;;;;;;11.73;10.73;;;;;;;4.06;100.00;95994.00;5042868;28;20733;-68
2021/05/03 00:44:32;;;;;;;11.53;10.57;;;;;;;4.01;100.00;95998.78;5044658;28;20760;-68
2021/05/03 00:46:59;;;;;;;11.30;10.30;;;;;;;3.99;100.00;96000.72;5044596;28;20232;-69
2021/05/03 00:49:28;;;;;;;9.17;8.47;;;;;;;3.98;100.00;96005.13;5043540;28;20794;-68
2021/05/03 00:51:55;;;;;;;11.67;10.77;;;;;;;4.03;100.00;95996.91;5028120;28;20228;-69
2021/05/03 00:54:22;;;;;;;11.53;10.63;;;;;;;3.98;100.00;96001.69;5044412;28;20288;-69
2021/05/03 00:56:49;;;;;;;10.37;9.53;;;;;;;4.02;100.00;96003.06;5045609;28;20280;-68
2021/05/03 00:59:16;;;;;;;12.13;11.03;;;;;;;3.98;100.00;95999.06;5042450;28;20719;-68
2021/05/03 01:01:44;;;;;;;12.30;11.37;;;;;;;4.01;100.00;96004.03;5045512;28;20290;-68
2021/05/03 01:04:11;;;;;;;11.70;10.70;;;;;;;3.92;100.00;96002.22;5043627;28;20238;-68
2021/05/03 01:06:38;;;;;;;11.53;10.43;;;;;;;3.99;100.00;96000.72;5044911;28;20250;-68
2021/05/03 01:09:05;;;;;;;11.23;10.07;;;;;;;4.02;100.00;95995.22;5017036;28;20258;-67
2021/05/03 01:11:33;;;;;;;11.83;10.63;;;;;;;3.99;100.00;96001.56;5023771;28;20232;-68
2021/05/03 01:14:00;;;;;;;13.10;12.10;;;;;;;4.03;100.00;96001.31;5038966;28;20283;-69
2021/05/03 01:16:27;;;;;;;12.07;10.87;;;;;;;4.00;100.00;96003.19;5047113;28;20217;-67
2021/05/03 01:18:54;;;;;;;10.80;10.00;;;;;;;3.99;100.00;96004.16;5042501;28;20236;-68
2021/05/03 01:21:26;;;;;;;12.60;11.60;;;;;;;3.92;100.00;95999.59;5041333;28;20330;-68
2021/05/03 01:23:53;;;;;;;14.10;12.77;;;;;;;4.06;100.00;96008.84;5039276;28;20587;-68
2021/05/03 01:26:20;;;;;;;13.13;12.13;;;;;;;4.00;100.00;96007.59;5026861;28;20259;-68
2021/05/03 01:28:47;;;;;;;13.03;11.87;;;;;;;3.90;100.00;96001.53;5043506;28;20631;-68
2021/05/03 01:31:15;;;;;;;12.90;11.90;;;;;;;3.87;100.00;96007.03;5042386;28;20270;-68
2021/05/03 01:33:42;;;;;;;12.67;11.63;;;;;;;3.85;100.00;96006.34;5044631;28;20223;-68
2021/05/03 01:36:10;;;;;;;11.70;10.80;;;;;;;3.86;100.00;96005.38;5028933;28;20720;-69
2021/05/03 01:38:38;;;;;;;12.97;11.87;;;;;;;3.85;100.00;96008.97;5037949;28;20682;-68
2021/05/03 01:41:05;;;;;;;11.50;10.53;;;;;;;3.83;100.00;96005.63;5043474;28;20696;-68
2021/05/03 01:43:32;;;;;;;11.07;10.17;;;;;;;3.85;100.00;96011.56;5028232;28;20235;-68
2021/05/03 01:45:59;;;;;;;10.23;9.43;;;;;;;3.84;100.00;96004.66;5026773;28;20231;-68
2021/05/03 01:48:28;;;;;;;12.33;11.33;;;;;;;3.87;100.00;96012.25;5024270;28;20220;-68
2021/05/03 01:50:57;;;;;;;11.70;10.80;;;;;;;3.85;100.00;96012.38;5030656;28;20279;-68
2021/05/03 01:53:24;;;;;;;10.07;9.23;;;;;;;3.87;100.00;96017.47;5036091;28;20322;-67
2021/05/03 01:55:53;;;;;;;11.57;10.67;;;;;;;3.87;100.00;96013.06;5043480;28;20518;-69
2021/05/03 01:58:22;;;;;;;9.90;9.30;;;;;;;3.82;100.00;96019.66;5043013;28;20467;-68
2021/05/03 02:00:49;;;;;;;10.27;9.47;;;;;;;3.84;99.78;96028.16;5042056;28;20222;-68
2021/05/03 02:03:21;;;;;;;9.17;8.47;;;;;;;3.71;99.89;96018.78;5046397;28;20539;-69
2021/05/03 02:05:49;;;;;;;9.47;8.67;;;;;;;3.70;99.71;96017.16;5035098;28;20226;-68
2021/05/03 02:08:17;;;;;;;9.67;8.93;;;;;;;3.66;99.49;96009.72;5042869;28;20697;-68
2021/05/03 02:10:44;;;;;;;10.07;9.27;;;;;;;3.57;99.67;96019.19;5042414;28;20281;-68
2021/05/03 02:13:12;;;;;;;8.20;7.60;;;;;;;3.63;99.55;96021.25;5042578;28;20694;-68
2021/05/03 02:15:40;;;;;;;8.83;8.13;;;;;;;3.53;99.32;96017.78;5043475;28;20235;-68
2021/05/03 02:18:07;;;;;;;8.37;7.67;;;;;;;3.43;99.27;96016.91;5041746;28;20231;-68
2021/05/03 02:20:34;;;;;;;8.33;7.83;;;;;;;3.35;99.42;96011.53;5037597;28;20627;-69
2021/05/03 02:23:01;;;;;;;8.60;8.00;;;;;;;3.22;99.82;96008.31;5041557;28;20238;-68
2021/05/03 02:25:28;;;;;;;9.83;9.03;;;;;;;3.24;100.00;96009.00;5043060;28;20272;-68
2021/05/03 02:27:55;;;;;;;9.53;8.87;;;;;;;3.11;100.00;96004.00;5045634;28;20277;-68
2021/05/03 02:30:23;;;;;;;9.03;8.27;;;;;;;3.06;100.00;96004.38;5043971;28;20222;-69
2021/05/03 02:32:50;;;;;;;7.83;7.23;;;;;;;2.98;100.00;96006.81;5041833;28;20320;-69
2021/05/03 02:35:18;;;;;;;9.33;8.63;;;;;;;2.94;100.00;96008.03;5017633;28;20260;-68
2021/05/03 02:37:48;;;;;;;10.13;9.17;;;;;;;2.96;100.00;96018.31;5039109;28;20628;-67
2021/05/03 02:40:16;;;;;;;9.37;8.67;;;;;;;2.99;100.00;96020.66;5036275;28;20226;-68
2021/05/03 02:42:45;;;;;;;9.73;8.93;;;;;;;2.89;100.00;96020.63;5042457;28;20254;-68
2021/05/03 02:45:13;;;;;;;8.53;7.87;;;;;;;2.88;100.00;96018.97;5026144;28;20250;-68
2021/05/03 02:47:41;;;;;;;8.93;8.13;;;;;;;2.92;100.00;96015.13;5042024;28;20700;-68
2021/05/03 02:50:11;;;;;;;10.63;9.83;;;;;;;2.97;100.00;96012.97;5038814;28;20649;-68
2021/05/03 02:52:38;;;;;;;9.60;8.87;;;;;;;2.96;100.00;96020.94;5041391;28;20239;-67
2021/05/03 02:55:08;;;;;;;9.23;8.40;;;;;;;2.96;100.00;96021.75;5043120;28;20382;-68
2021/05/03 02:57:35;;;;;;;8.60;7.93;;;;;;;3.08;100.00;96015.50;5042100;28;20231;-68
2021/05/03 03:00:03;;;;;;;8.53;7.93;;;;;;;3.07;100.00;96023.47;5046164;28;20305;-67
2021/05/03 03:02:30;;;;;;;8.13;7.47;;;;;;;3.04;100.00;96021.13;5039998;28;20307;-67
2021/05/03 03:04:58;;;;;;;10.10;9.30;;;;;;;3.05;100.00;96014.94;5037253;28;20227;-68
2021/05/03 03:07:25;;;;;;;9.13;8.43;;;;;;;3.12;100.00;96011.69;5033726;28;20226;-68
2021/05/03 03:09:52;;;;;;;10.47;9.57;;;;;;;3.27;100.00;96014.78;5043879;28;20313;-68
2021/05/03 03:12:19;;;;;;;8.33;7.83;;;;;;;3.29;100.00;96012.03;5024472;28;20315;-68
2021/05/03 03:14:46;;;;;;;8.53;7.93;;;;;;;3.41;100.00;96011.00;5033763;28;20332;-68
2021/05/03 03:17:13;;;;;;;7.97;7.37;;;;;;;3.37;100.00;96014.81;5023149;28;20230;-67
2021/05/03 03:19:42;;;;;;;8.50;7.80;;;;;;;3.37;100.00;96014.81;5038084;28;20302;-68
2021/05/03 03:22:10;;;;;;;7.33;6.90;;;;;;;3.33;100.00;96023.88;5037283;28;20234;-68
2021/05/03 03:24:37;;;;;;;9.27;8.63;;;;;;;3.22;100.00;96026.56;5043349;28;20231;-68
2021/05/03 03:27:05;;;;;;;7.37;6.87;;;;;;;3.31;100.00;96031.00;5039539;28;20235;-68
2021/05/03 03:29:32;;;;;;;7.00;6.50;;;;;;;3.23;100.00;96033.44;5022980;28;20237;-69
2021/05/03 03:31:59;;;;;;;8.43;7.83;;;;;;;3.24;100.00;96029.88;5050425;28;20276;-68
2021/05/03 03:34:26;;;;;;;9.47;8.80;;;;;;;3.25;100.00;96034.13;5044809;28;20313;-68
2021/05/03 03:37:03;;;;;;;7.73;7.23;;;;;;;3.28;100.00;96033.84;5033166;28;20233;-66
2021/05/03 03:39:31;;;;;;;8.20;7.70;;;;;;;3.19;100.00;96032.03;5047087;28;20249;-67
2021/05/03 03:41:58;;;;;;;8.00;7.50;;;;;;;3.09;100.00;96048.44;5042409;28;20281;-66
2021/05/03 03:44:25;;;;;;;7.63;7.03;;;;;;;3.09;100.00;96031.97;5046955;28;20690;-66
2021/05/03 03:46:52;;;;;;;8.40;7.70;;;;;;;3.22;100.00;96042.22;5045395;28;20228;-66
2021/05/03 03:49:19;;;;;;;9.27;8.63;;;;;;;3.20;100.00;96044.09;5046125;28;20227;-66
2021/05/03 03:51:45;;;;;;;7.60;7.10;;;;;;;3.28;99.90;96041.69;5038442;28;20269;-66
2021/05/03 03:54:12;;;;;;;9.37;8.57;;;;;;;3.25;99.47;96045.38;5052505;28;20623;-66
2021/05/03 03:56:40;;;;;;;10.90;10.10;;;;;;;3.19;100.00;96048.50;5045585;28;20274;-66
2021/05/03 03:59:09;;;;;;;8.77;8.07;;;;;;;3.14;99.69;96053.28;5047028;28;20223;-66
2021/05/03 04:01:37;;;;;;;8.13;7.53;;;;;;;3.09;100.00;96053.66;5043392;28;21431;-66
2021/05/03 04:04:13;;;;;;;9.60;8.97;;;;;;;3.10;100.00;96052.69;5046547;28;20238;-66
2021/05/03 04:06:45;;;;;;;8.57;7.97;;;;;;;3.12;100.00;96056.03;5042944;28;20269;-66
2021/05/03 04:09:19;;;;;;;8.00;7.40;;;;;;;3.04;99.69;96058.44;5044310;28;20220;-65
2021/05/03 04:12:07;;;;;;;9.60;8.70;;;;;;;3.01;100.00;96053.47;5046970;28;20226;-66
2021/05/03 04:25:47;;;;;;;10.47;9.57;;;;;;;3.08;100.00;96062.44;4978311;28;20585;-65
2021/05/03 04:28:15;;;;;;;9.10;8.37;;;;;;;3.08;99.38;96066.81;5027076;28;20298;-66
2021/05/03 04:30:41;;;;;;;9.93;9.23;;;;;;;3.16;99.63;96068.81;5041627;28;20224;-66
2021/05/03 04:33:08;;;;;;;10.33;9.53;;;;;;;3.17;99.70;96065.22;5035837;28;20339;-66
2021/05/03 04:35:35;;;;;;;8.97;8.33;;;;;;;3.16;99.52;96071.41;5044501;28;20223;-66
2021/05/03 04:38:03;;;;;;;10.70;9.90;;;;;;;3.14;99.16;96072.38;5029135;28;20264;-66
2021/05/03 04:40:30;;;;;;;8.93;8.23;;;;;;;3.24;98.90;96074.22;5047006;28;20238;-66
2021/05/03 04:42:57;;;;;;;10.03;9.23;;;;;;;3.16;99.30;96077.44;5045232;28;20250;-65
2021/05/03 04:45:25;;;;;;;9.73;9.00;;;;;;;3.19;99.74;96079.78;5036651;28;20227;-66
2021/05/03 04:47:52;;;;;;;9.67;8.87;;;;;;;3.23;99.98;96080.38;5046720;28;20704;-66
2021/05/03 04:50:19;;;;;;;7.90;7.30;;;;;;;3.30;99.43;96081.53;5038070;28;20651;-66
2021/05/03 04:52:46;;;;;;;9.37;8.70;;;;;;;3.30;99.59;96086.75;5053090;28;20246;-65
2021/05/03 04:55:13;;;;;;;10.27;9.47;;;;;;;3.24;99.54;96097.69;5047529;28;20232;-66
2021/05/03 04:57:40;;;;;;;10.90;9.90;;;;;;;3.21;99.53;96087.50;5046257;28;20270;-66
2021/05/03 05:00:08;;;;;;;9.87;9.17;;;;;;;3.20;99.33;96091.03;5044438;28;20355;-66
2021/05/03 05:02:36;;;;;;;11.97;11.03;;;;;;;3.28;99.80;96094.66;5046346;28;20726;-66
2021/05/03 05:05:03;;;;;;;8.53;8.00;;;;;;;3.30;99.08;96091.97;5045207;28;20369;-66
2021/05/03 05:07:31;;;;;;;11.63;10.80;;;;;;;3.39;99.75;96097.22;5047030;28;20303;-66
2021/05/03 05:09:57;;;;;;;9.33;8.53;;;;;;;3.48;99.30;96095.63;5050717;28;20667;-66
2021/05/03 05:12:24;;;;;;;8.27;7.67;;;;;;;3.56;98.72;96101.00;5043782;28;20283;-66
2021/05/03 05:14:51;;;;;;;10.47;9.67;;;;;;;3.64;98.96;96095.13;5050664;28;20681;-66
2021/05/03 05:17:18;;;;;;;10.70;9.80;;;;;;;3.57;98.54;96107.91;5048629;28;20465;-64
2021/05/03 05:19:47;;;;;;;9.27;8.57;;;;;;;3.61;98.51;96101.44;5043391;28;20220;-66
2021/05/03 05:22:14;;;;;;;10.03;9.23;;;;;;;3.68;98.96;96107.81;5046411;28;20259;-65
2021/05/03 05:24:41;;;;;;;10.37;9.57;;;;;;;3.76;98.72;96116.78;5049135;28;20708;-66
2021/05/03 05:27:08;;;;;;;8.60;7.90;;;;;;;3.81;98.05;96109.38;5045411;28;20261;-65
2021/05/03 05:29:36;;;;;;;8.33;7.73;;;;;;;3.89;97.96;96109.53;5040886;28;20227;-66
2021/05/03 05:32:04;;;;;;;10.07;8.47;;;;;;;3.83;97.63;96110.06;5046122;28;20252;-66
2021/05/03 05:34:31;;;;;;;9.40;8.70;;;;;;;4.00;98.26;96101.59;5041667;28;20672;-66
2021/05/03 05:36:59;;;;;;;12.00;10.90;;;;;;;4.02;97.96;96104.91;5045992;28;20344;-66
2021/05/03 05:39:26;;;;;;;10.67;9.83;;;;;;;4.16;97.07;96112.38;5042682;28;20244;-66
2021/05/03 05:41:53;;;;;;;8.97;8.27;;;;;;;4.17;97.53;96108.81;5041217;28;20286;-65
2021/05/03 05:44:20;;;;;;;7.83;7.30;;;;;;;4.08;96.84;96112.22;5037285;28;20974;-66
2021/05/03 05:46:48;;;;;;;10.27;9.37;;;;;;;4.20;97.47;96115.53;5045201;28;20511;-66
2021/05/03 05:49:15;;;;;;;9.67;8.77;;;;;;;4.36;96.90;96112.41;5043006;28;20228;-66
2021/05/03 05:51:42;;;;;;;10.33;9.57;;;;;;;4.48;97.43;96121.78;5047596;28;20379;-66
2021/05/03 05:54:10;;;;;;;11.33;10.47;;;;;;;4.57;97.02;96115.75;5046807;28;20241;-65
2021/05/03 05:56:37;;;;;;;10.23;9.43;;;;;;;4.72;96.24;96119.63;5047258;28;20249;-66
2021/05/03 05:59:04;;;;;;;9.63;8.93;;;;;;;4.88;95.99;96120.88;5040845;28;20602;-66
2021/05/03 06:01:31;;;;;;;9.57;8.83;;;;;;;4.83;95.96;96121.28;5036750;28;20259;-66
2021/05/03 06:03:58;;;;;;;10.37;9.50;;;;;;;5.08;95.61;96125.13;5043298;28;20233;-66
2021/05/03 06:06:25;;;;;;;7.73;7.20;;;;;;;5.19;95.52;96117.13;5046522;28;20588;-66
2021/05/03 06:08:51;;;;;;;8.07;7.40;;;;;;;5.24;94.58;96125.41;5051055;28;20233;-66
2021/05/03 06:11:20;;;;;;;9.43;8.63;;;;;;;5.21;94.50;96119.59;5043924;28;20304;-66
2021/05/03 06:13:47;;;;;;;8.83;8.23;;;;;;;5.16;94.82;96117.44;5052267;28;20367;-67
2021/05/03 06:16:13;;;;;;;10.43;9.73;;;;;;;5.30;95.20;96122.25;5036911;28;20228;-66
2021/05/03 06:18:40;;;;;;;7.83;7.27;;;;;;;5.35;94.25;96127.88;5046289;28;20632;-66
2021/05/03 06:21:07;;;;;;;9.53;8.67;;;;;;;5.49;93.19;96123.19;5047560;28;20229;-67
2021/05/03 06:23:34;;;;;;;10.37;9.40;;;;;;;5.51;93.42;96131.72;5045000;28;20222;-66
2021/05/03 06:26:01;;;;;;;8.47;7.97;;;;;;;5.48;92.85;96124.13;5046105;28;20693;-66
2021/05/03 06:28:29;;;;;;;7.83;7.23;;;;;;;5.41;92.58;96127.31;5045731;28;20300;-66
2021/05/03 06:30:57;;;;;;;8.87;8.30;;;;;;;5.52;92.70;96125.50;5044723;28;20226;-66
2021/05/03 06:33:24;;;;;;;9.13;8.43;;;;;;;5.62;92.08;96126.31;5038800;28;20227;-66
2021/05/03 06:35:52;;;;;;;9.17;8.57;;;;;;;5.84;91.46;96128.56;5052323;28;20305;-67
2021/05/03 06:38:20;;;;;;;8.37;7.77;;;;;;;5.85;90.32;96125.00;5048155;28;20299;-66
2021/05/03 06:40:48;;;;;;;6.93;6.53;;;;;;;5.91;89.49;96123.63;5051270;28;20218;-65
2021/05/03 06:43:15;;;;;;;9.37;8.63;;;;;;;6.02;88.15;96126.06;5040456;28;20314;-66
2021/05/03 06:45:43;;;;;;;8.33;7.83;;;;;;;6.09;88.16;96129.75;5037781;28;20246;-66
2021/05/03 06:48:10;;;;;;;6.73;6.23;;;;;;;6.18;88.82;96125.44;5023508;28;20723;-66
2021/05/03 06:50:40;;;;;;;8.33;7.63;;;;;;;6.24;89.43;96124.88;5045621;28;20646;-65
2021/05/03 06:53:06;;;;;;;7.40;6.97;;;;;;;6.37;87.79;96125.34;5041416;28;20303;-66
2021/05/03 06:55:33;;;;;;;7.90;7.37;;;;;;;6.41;88.41;96131.97;5043691;28;20253;-65
2021/05/03 06:58:00;;;;;;;6.47;5.87;;;;;;;6.47;86.07;96133.97;5045791;28;20250;-66
2021/05/03 07:00:27;;;;;;;6.60;6.00;;;;;;;6.40;85.71;96130.31;5039398;28;20309;-66
2021/05/03 07:02:55;;;;;;;8.13;7.53;;;;;;;6.61;88.14;96132.66;5039243;28;20232;-66
2021/05/03 07:05:22;;;;;;;9.63;8.83;;;;;;;6.67;87.33;96134.66;5036589;28;20584;-65
2021/05/03 07:07:48;;;;;;;8.70;8.00;;;;;;;6.73;84.21;96143.75;5048947;28;20229;-66
2021/05/03 07:10:16;;;;;;;5.77;5.47;;;;;;;6.68;85.53;96135.53;5054796;28;20223;-66
2021/05/03 07:12:46;;;;;;;6.30;5.90;;;;;;;6.82;83.56;96145.50;5045359;28;20318;-65
2021/05/03 07:15:14;;;;;;;6.57;6.13;;;;;;;7.09;85.12;96132.31;5047046;28;20313;-66
2021/05/03 07:17:41;;;;;;;7.00;6.50;;;;;;;7.24;85.76;96134.41;5056826;28;20210;-66
2021/05/03 07:20:10;;;;;;;7.07;6.57;;;;;;;7.38;84.77;96139.94;5044290;28;20719;-66
2021/05/03 07:22:37;;;;;;;7.00;6.43;;;;;;;7.63;84.74;96143.56;5047024;28;20243;-66
2021/05/03 07:25:08;;;;;;;7.13;6.63;;;;;;;7.58;82.36;96139.75;5057152;28;20307;-66
2021/05/03 07:27:35;;;;;;;6.83;6.37;;;;;;;7.30;83.42;96147.72;5048233;28;20222;-66
2021/05/03 07:30:03;;;;;;;6.23;5.83;;;;;;;7.20;82.61;96149.63;5051322;28;20287;-67
2021/05/03 07:32:29;;;;;;;6.17;5.77;;;;;;;7.28;82.12;96151.50;5050988;28;20694;-66
2021/05/03 07:34:56;;;;;;;6.33;5.93;;;;;;;7.48;79.41;96142.47;5055538;28;20581;-66
2021/05/03 07:37:24;;;;;;;6.40;6.00;;;;;;;7.55;82.08;96135.63;5053882;28;20302;-65
2021/05/03 07:39:51;;;;;;;6.10;5.70;;;;;;;7.41;80.31;96146.69;5046692;28;20308;-66
2021/05/03 07:42:18;;;;;;;7.17;6.50;;;;;;;7.36;80.53;96139.25;5049782;28;20219;-66
2021/05/03 07:45:06;;;;;;;8.07;7.27;;;;;;;7.68;78.86;96138.69;5054964;28;20612;-66
2021/05/03 07:47:33;;;;;;;6.73;6.33;;;;;;;7.97;77.73;96140.16;5032763;28;20226;-65
2021/05/03 07:50:00;;;;;;;5.83;5.33;;;;;;;8.33;76.54;96135.59;5040080;28;20214;-65
2021/05/03 07:52:31;;;;;;;5.97;5.30;;;;;;;8.25;72.96;96135.53;5049225;28;20228;-66
2021/05/03 07:54:59;;;;;;;5.43;5.03;;;;;;;8.63;73.58;96139.50;5048711;28;20383;-67
2021/05/03 07:57:26;;;;;;;6.13;5.67;;;;;;;8.68;74.41;96137.19;5054041;28;20219;-67
2021/05/03 07:59:53;;;;;;;5.57;5.23;;;;;;;8.96;73.52;96139.56;5052812;28;20306;-66
2021/05/03 08:02:20;;;;;;;5.20;4.90;;;;;;;9.10;72.94;96146.84;5050816;28;20373;-66
2021/05/03 08:04:49;;;;;;;5.63;5.33;;;;;;;8.84;72.83;96139.88;5047617;28;20758;-67
2021/05/03 08:07:16;;;;;;;4.67;4.33;;;;;;;8.70;73.39;96147.59;5051246;28;20250;-66
2021/05/03 08:09:44;;;;;;;5.17;4.87;;;;;;;8.66;73.55;96144.44;5055765;28;20287;-67
2021/05/03 08:12:11;;;;;;;5.30;5.00;;;;;;;8.74;75.05;96141.81;5050660;28;20288;-66
2021/05/03 08:14:40;;;;;;;6.20;5.80;;;;;;;8.41;75.03;96134.81;5050313;28;20250;-66
2021/05/03 08:17:09;;;;;;;5.73;5.33;;;;;;;8.39;70.97;96134.13;5045201;28;20621;-66
2021/05/03 08:19:36;;;;;;;4.43;4.23;;;;;;;8.48;72.58;96141.06;5050676;28;20228;-67
2021/05/03 08:22:04;;;;;;;4.77;4.47;;;;;;;8.54;73.52;96140.44;5039463;28;20337;-66
2021/05/03 08:24:32;;;;;;;5.60;5.27;;;;;;;8.61;74.33;96133.59;5039120;28;20222;-66
2021/05/03 08:27:00;;;;;;;5.53;5.23;;;;;;;9.06;72.48;96135.00;5058445;28;20366;-65
2021/05/03 08:29:27;;;;;;;5.60;5.27;;;;;;;8.81;72.08;96142.00;5047774;28;20241;-66
2021/05/03 08:31:56;;;;;;;5.13;4.83;;;;;;;9.01;70.68;96142.53;5035263;28;20712;-66
2021/05/03 08:34:23;;;;;;;4.97;4.70;;;;;;;8.85;69.26;96143.31;5042755;28;20215;-67
2021/05/03 08:36:52;;;;;;;6.30;5.70;;;;;;;8.79;70.23;96144.81;5033875;28;20305;-66
2021/05/03 08:39:21;;;;;;;5.67;5.27;;;;;;;8.34;69.50;96155.63;5054074;28;20245;-67
2021/05/03 08:41:48;;;;;;;7.10;6.53;;;;;;;8.02;73.98;96155.47;5045371;28;20253;-67
2021/05/03 08:44:19;;;;;;;5.70;5.30;;;;;;;7.91;75.56;96153.94;5039557;28;20726;-67
2021/05/03 08:46:46;;;;;;;6.20;5.70;;;;;;;7.89;75.43;96150.63;5045743;28;20312;-67
2021/05/03 08:49:19;;;;;;;5.43;5.10;;;;;;;7.90;72.04;96152.28;5038449;28;20227;-67
2021/05/03 08:51:50;;;;;;;6.77;6.27;;;;;;;7.77;73.55;96149.22;5047094;28;20626;-67
2021/05/03 08:54:24;;;;;;;5.47;5.07;;;;;;;7.88;75.32;96143.72;5047873;28;20785;-67
2021/05/03 08:56:50;;;;;;;5.60;5.20;;;;;;;8.05;75.71;96140.22;5050086;28;20256;-67
2021/05/03 08:59:17;;;;;;;5.33;4.93;;;;;;;8.06;73.89;96141.88;5033852;28;20462;-65
2021/05/03 09:01:46;;;;;;;6.27;5.87;;;;;;;8.09;74.21;96152.06;5035089;28;20228;-67
2021/05/03 09:04:14;;;;;;;7.07;4.50;;;;;;;8.31;73.75;96137.53;5045460;28;20323;-66
2021/05/03 09:07:00;;;;;;;4.97;4.67;;;;;;;8.46;73.04;96133.34;5053331;28;20261;-66
2021/05/03 09:09:32;;;;;;;5.63;5.27;;;;;;;8.99;73.23;96132.19;5045000;28;20282;-67
2021/05/03 09:12:00;;;;;;;7.83;6.23;;;;;;;9.73;72.67;96133.00;5047632;28;20224;-67
2021/05/03 09:14:27;;;;;;;5.10;4.70;;;;;;;10.45;69.86;96123.28;5047973;28;20259;-67
2021/05/03 09:16:54;;;;;;;4.70;4.47;;;;;;;10.34;62.47;96125.47;5048324;28;20238;-67
2021/05/03 09:19:24;;;;;;;4.73;4.43;;;;;;;10.07;68.33;96118.78;5029513;28;20311;-67
2021/05/03 09:21:51;;;;;;;5.83;5.33;;;;;;;10.24;64.58;96123.00;5042182;28;20322;-67
2021/05/03 09:24:21;;;;;;;7.00;6.60;;;;;;;10.08;66.28;96121.25;5050507;28;20421;-67
2021/05/03 09:26:52;;;;;;;4.63;4.23;;;;;;;9.53;64.61;96132.53;5045889;28;20369;-67
2021/05/03 09:29:30;;;;;;;5.37;5.03;;;;;;;9.41;67.95;96123.31;5043346;28;20223;-67
2021/05/03 09:32:07;;;;;;;4.87;4.57;;;;;;;9.86;65.66;96120.13;5046511;28;20233;-67
2021/05/03 09:34:35;;;;;;;4.37;4.03;;;;;;;10.74;65.42;96116.53;5035576;28;20471;-67
2021/05/03 09:37:28;;;;;;;4.17;3.97;;;;;;;10.62;60.38;96115.28;5053948;28;20647;-68
2021/05/03 09:39:58;;;;;;;4.43;4.13;;;;;;;9.65;65.70;96130.38;5051977;28;20218;-67
2021/05/03 09:42:41;;;;;;;3.90;3.70;;;;;;;9.25;63.56;96137.31;5044857;28;20310;-67
2021/05/03 09:45:10;;;;;;;3.00;2.83;;;;;;;8.43;66.61;96127.59;5046058;28;20261;-66
2021/05/03 09:47:39;;;;;;;3.97;3.67;;;;;;;7.97;68.33;96142.81;5049261;28;20681;-67
2021/05/03 09:50:10;;;;;;;4.67;4.20;;;;;;;7.86;70.70;96140.41;5047749;28;20221;-66
2021/05/03 09:52:37;;;;;;;4.37;3.37;;;;;;;7.83;70.43;96125.78;5043672;28;20254;-66
2021/05/03 09:55:23;;;;;;;4.40;4.20;;;;;;;8.12;71.55;96125.44;5042670;28;20233;-67
2021/05/03 09:58:06;;;;;;;3.90;3.70;;;;;;;8.49;69.23;96116.41;5037621;28;20250;-66
2021/05/03 10:00:37;;;;;;;6.00;4.83;;;;;;;8.65;67.82;96121.75;5044224;28;20306;-67
2021/05/03 10:03:28;;;;;;;4.43;4.23;;;;;;;8.79;68.86;96112.41;5041734;28;20320;-66
2021/05/03 10:05:56;;;;;;;4.20;3.90;;;;;;;9.15;69.56;96115.59;5045930;28;20702;-66
2021/05/03 10:08:22;;;;;;;5.30;5.00;;;;;;;9.95;67.98;96105.13;5049809;28;20218;-67
2021/05/03 10:10:51;;;;;;;5.87;5.47;;;;;;;10.90;65.07;96100.63;5045696;28;20297;-67
2021/05/03 10:13:20;;;;;;;4.67;4.37;;;;;;;10.98;66.10;96100.56;5047874;28;20218;-67
2021/05/03 10:15:48;;;;;;;5.60;5.30;;;;;;;10.73;65.50;96099.06;5045168;28;20311;-66
2021/05/03 10:18:17;;;;;;;4.70;4.37;;;;;;;10.31;64.11;96094.97;5039537;28;20553;-67
2021/05/03 10:20:47;;;;;;;3.70;3.40;;;;;;;10.13;61.05;96091.72;5048664;28;20604;-67
2021/05/03 10:23:15;;;;;;;3.77;3.47;;;;;;;9.97;64.20;96093.44;5046574;28;20229;-66
2021/05/03 10:25:42;;;;;;;3.87;3.57;;;;;;;10.67;64.96;96094.47;5048108;28;20218;-66
2021/05/03 10:28:10;;;;;;;3.23;3.03;;;;;;;11.15;61.06;96092.50;5042864;28;20219;-67
2021/05/03 10:30:42;;;;;;;2.80;2.60;;;;;;;11.95;57.99;96074.28;5039938;28;20948;-67
2021/05/03 10:33:10;;;;;;;2.80;2.60;;;;;;;12.29;60.14;96070.28;5016593;28;20310;-67
2021/05/03 10:35:43;;;;;;;3.27;3.07;;;;;;;11.86;56.34;96070.09;5049432;28;20226;-67
2021/05/03 10:38:38;;;;;;;3.07;2.87;;;;;;;11.60;57.95;96073.94;5049052;28;20526;-67
2021/05/03 10:41:26;;;;;;;3.53;3.23;;;;;;;10.87;59.16;96068.44;5037055;28;20240;-67
2021/05/03 10:44:13;;;;;;;2.17;1.97;;;;;;;10.67;56.20;96073.34;5039890;28;20242;-67
2021/05/03 10:49:32;;;;;;;2.60;2.50;;;;;;;11.66;56.73;96073.22;5043429;28;20231;-67
2021/05/03 10:52:01;;;;;;;1.70;1.60;;;;;;;12.23;52.62;96067.34;5050006;28;20226;-67
2021/05/03 10:54:40;;;;;;;1.60;1.50;;;;;;;12.60;48.74;96041.72;5045760;28;20233;-68
2021/05/03 10:57:09;;;;;;;1.47;1.47;;;;;;;12.28;51.47;96047.47;5042895;28;20225;-67
2021/05/03 10:59:45;;;;;;;2.77;2.47;;;;;;;11.76;53.29;96053.66;5059686;28;20301;-68
2021/05/03 11:02:14;;;;;;;2.87;2.77;;;;;;;11.10;56.86;96048.97;5040278;28;20300;-67
2021/05/03 11:05:11;;;;;;;2.83;2.63;;;;;;;11.64;59.64;96061.22;5038152;28;20493;-67
2021/05/03 11:08:31;;;;;;;2.43;2.33;;;;;;;12.23;55.91;96048.81;5045812;28;20224;-67
2021/05/03 11:11:10;;;;;;;2.20;2.07;;;;;;;12.76;51.58;96032.72;5046513;28;20247;-68
2021/05/03 11:13:56;;;;;;;2.40;2.10;;;;;;;13.17;52.12;96037.41;5044498;28;20537;-67
2021/05/03 11:16:49;;;;;;;2.23;2.13;;;;;;;12.98;51.41;96017.66;5045209;28;20238;-67
2021/05/03 11:22:43;;;;;;;2.13;1.93;;;;;;;12.22;54.13;96026.03;5042497;28;20583;-67
2021/05/03 11:25:12;;;;;;;1.77;1.67;;;;;;;11.91;51.43;96025.41;5026387;28;582201;-67
2021/05/03 11:27:54;;;;;;;3.13;1.97;;;;;;;13.09;50.45;96009.22;5050599;28;20230;-67
2021/05/03 11:30:27;;;;;;;1.23;1.13;;;;;;;12.88;52.68;96006.56;5040741;28;20234;-67
2021/05/03 11:32:56;;;;;;;2.67;2.47;;;;;;;12.38;51.40;96018.88;5049892;28;20226;-68
2021/05/03 11:35:30;;;;;;;2.50;2.30;;;;;;;13.04;51.00;96008.97;5048794;28;20219;-68
2021/05/03 11:38:02;;;;;;;2.53;2.33;;;;;;;12.93;52.12;96012.13;5045566;28;20807;-67
2021/05/03 11:40:52;;;;;;;2.13;2.03;;;;;;;12.82;48.65;95995.72;5038817;28;20230;-68
2021/05/03 11:43:53;;;;;;;2.00;1.90;;;;;;;12.64;53.14;96005.13;5031979;28;20246;-68
2021/05/03 11:49:15;;;;;;;1.50;1.17;;;;;;;11.47;50.12;95996.28;5039086;28;20234;-67
2021/05/03 11:51:44;;;;;;;1.20;0.73;;;;;;;11.88;49.87;95999.31;5044507;28;20252;-67
2021/05/03 11:54:25;;;;;;;2.20;2.10;;;;;;;12.15;53.48;95990.72;5046471;28;20718;-68
2021/05/03 11:56:59;;;;;;;1.90;1.80;;;;;;;11.96;51.44;95991.28;5050655;28;20713;-67
2021/05/03 11:59:27;;;;;;;4.20;2.80;;;;;;;11.75;50.50;95997.31;5052321;28;20341;-68
2021/05/03 12:02:03;;;;;;;2.13;2.03;;;;;;;11.61;53.51;95998.09;5047199;28;20228;-67
2021/05/03 12:04:36;;;;;;;2.93;1.57;;;;;;;11.62;54.37;95992.66;5044300;28;20226;-68